Rechercher aéroport 
image banner adimage banner adimage banner ad
image banner ad

7CL1 - Children's Hospital Oakland

Situé à Oakland, United States

ICAO - 7CL1, IATA -

Données fournies par Airmate  

Information générale

Coordonnées: N37°50'10" W122°16'0"
Élévation : 134 feet MSL.
Variation magnétique : 16° East
Voir autres Aéroports à California

Données opérationnelles

Special qualification required
Heure actuelle UTC:
Heure actuelle locale:
Météo à : KOAK - Metropolitan Oakland Intl ( 13 km )
METAR: KOAK 020653Z 30004KT 10SM SCT012 17/12 A3010 RMK AO2 SLP193 T01670122
TAF: KOAK 020638Z 0207/0312 29010KT P6SM FEW012 FM020900 30007KT P6SM OVC008 FM021500 30006KT P6SM BKN012 FM021730 31005KT P6SM FEW014 FM022100 30014KT P6SM FEW015 FM030500 29008KT P6SM SCT012 FM030800 30008KT P6SM BKN012
Voir NOTAMs / SUP AIP / TFR affectant cet aéroport [VIEW]
Fréquences de communication: [VIEW]

Pistes:

Coordonnées de l'aéroport

Adresse: Oakland United States

Vue satellite de 7CL1